Terminal Aerodrome Forecast
Issued by NWS Albany, NY

Current Version | Previous Version | Text Only | Print | Product List | Glossary On
Versions: 1 2 3 4 5 6 7 8 9 10 11 12 13 14 15 16 17 18
000 FTUS41 KALY 011700 TAFALB TAF KALB 011736Z 0118/0218 24007KT P6SM SCT050 FM020000 18004KT P6SM SKC FM020400 19004KT 5SM BR SCT002 SCT250 FM020700 VRB03KT 3/4SM BR BKN002 FM021300 20006KT P6SM SCT100 BKN250=

USA.gov is the U.S. government's official web portal to all federal, state and local government web resources and services.